createdAt,value
2023-05-09T00:00:06.448Z,61.98
2023-05-09T00:01:13.035Z,60.98
2023-05-09T00:02:16.352Z,61.36
2023-05-09T00:03:19.367Z,60.84
2023-05-09T00:04:22.321Z,60.38
2023-05-09T00:05:25.210Z,60.68
2023-05-09T00:06:28.434Z,60.31
2023-05-09T00:07:34.594Z,60.76
2023-05-09T00:08:38.235Z,60.79
2023-05-09T00:09:40.893Z,61.60
2023-05-09T00:10:43.534Z,61.85
2023-05-09T00:11:46.213Z,61.31
2023-05-09T00:12:49.701Z,60.91
2023-05-09T00:13:52.299Z,61.30
2023-05-09T00:14:56.955Z,60.86
2023-05-09T00:15:59.676Z,60.90
2023-05-09T00:17:02.369Z,61.20
2023-05-09T00:18:05.280Z,61.18
2023-05-09T00:19:08.162Z,61.21
2023-05-09T00:20:12.582Z,61.77
2023-05-09T00:21:15.620Z,61.62
2023-05-09T00:22:19.366Z,62.10
2023-05-09T00:23:22.133Z,61.31
2023-05-09T00:24:24.788Z,61.05
2023-05-09T00:25:27.799Z,61.77
2023-05-09T00:26:30.629Z,61.56
2023-05-09T00:27:33.322Z,61.55
2023-05-09T00:28:36.204Z,62.03
2023-05-09T00:29:38.867Z,62.43
2023-05-09T00:30:41.565Z,62.08
2023-05-09T00:31:44.147Z,61.75
2023-05-09T00:32:46.896Z,61.58
2023-05-09T00:33:49.556Z,62.02
2023-05-09T00:34:52.369Z,61.92
2023-05-09T00:35:55.065Z,61.99
2023-05-09T00:36:57.680Z,62.22
2023-05-09T00:38:00.535Z,63.51
2023-05-09T00:39:03.381Z,63.54
2023-05-09T00:40:07.723Z,63.54
2023-05-09T00:41:10.526Z,63.34
2023-05-09T00:42:13.204Z,62.80
2023-05-09T00:43:16.965Z,62.50
2023-05-09T00:44:19.786Z,62.77
2023-05-09T00:45:22.642Z,63.23
2023-05-09T00:46:25.778Z,63.73
2023-05-09T00:47:29.220Z,63.31
2023-05-09T00:48:32.112Z,63.54
2023-05-09T00:49:34.991Z,63.29
2023-05-09T00:50:37.994Z,62.91
2023-05-09T00:51:41.680Z,62.84
2023-05-09T00:52:44.407Z,62.77
2023-05-09T00:53:47.268Z,63.25
2023-05-09T00:54:52.101Z,64.45
2023-05-09T00:55:56.986Z,65.00
2023-05-09T00:57:00.663Z,64.32
2023-05-09T00:58:04.124Z,63.53
2023-05-09T00:59:06.947Z,63.71
2023-05-09T01:00:13.740Z,63.69
2023-05-09T01:01:16.990Z,64.12
2023-05-09T01:02:20.077Z,63.87
2023-05-09T01:03:23.090Z,64.29
2023-05-09T01:04:26.972Z,63.90
2023-05-09T01:05:52.994Z,63.87
2023-05-09T01:07:06.473Z,63.71
2023-05-09T01:08:31.639Z,64.25
2023-05-09T01:09:47.797Z,64.01
2023-05-09T01:11:19.690Z,63.78
2023-05-09T01:12:25.105Z,64.33
2023-05-09T01:13:38.039Z,65.09
2023-05-09T01:14:52.551Z,64.88
2023-05-09T01:16:10.848Z,64.48
2023-05-09T01:17:40.233Z,64.36
2023-05-09T01:19:01.580Z,65.02
2023-05-09T01:20:13.224Z,65.86
2023-05-09T01:21:28.309Z,65.28
2023-05-09T01:22:37.359Z,65.88
2023-05-09T01:23:45.652Z,66.01
2023-05-09T01:24:50.954Z,65.91
2023-05-09T01:26:03.468Z,65.56
2023-05-09T01:27:27.319Z,65.50
2023-05-09T01:29:07.266Z,64.75
2023-05-09T01:30:12.800Z,64.84
2023-05-09T01:31:17.516Z,64.84
2023-05-09T01:32:25.132Z,65.13
2023-05-09T01:33:31.667Z,65.95
2023-05-09T01:34:35.840Z,66.69
2023-05-09T01:35:41.054Z,66.14
2023-05-09T01:36:44.571Z,66.85
2023-05-09T01:37:50.630Z,66.74
2023-05-09T01:38:54.286Z,67.46
2023-05-09T01:40:01.641Z,67.94
2023-05-09T01:41:06.732Z,68.48
2023-05-09T01:42:12.324Z,68.10
2023-05-09T01:43:18.426Z,67.91
2023-05-09T01:44:23.976Z,67.99
2023-05-09T01:45:27.703Z,67.88
2023-05-09T01:46:31.105Z,67.31
2023-05-09T01:47:34.849Z,67.14
2023-05-09T01:48:39.161Z,66.72
2023-05-09T01:49:43.088Z,66.87
2023-05-09T01:50:46.690Z,67.83
2023-05-09T01:51:52.307Z,68.18
2023-05-09T01:52:57.101Z,67.75
2023-05-09T01:54:01.468Z,67.38
2023-05-09T01:55:06.303Z,67.14
2023-05-09T01:56:10.000Z,68.10
2023-05-09T01:57:14.472Z,69.35
2023-05-09T01:58:18.530Z,68.90
2023-05-09T01:59:23.075Z,68.62
2023-05-09T02:00:26.615Z,69.02
2023-05-09T02:01:30.984Z,69.54
2023-05-09T02:02:34.665Z,69.54
2023-05-09T02:03:39.204Z,69.94
2023-05-09T02:04:43.628Z,69.32
2023-05-09T02:05:48.075Z,69.44
2023-05-09T02:06:51.867Z,69.67
2023-05-09T02:07:59.534Z,70.20
2023-05-09T02:09:03.162Z,70.11
2023-05-09T02:10:09.353Z,69.97
2023-05-09T02:11:12.115Z,69.89
2023-05-09T02:12:14.919Z,69.93
2023-05-09T02:13:17.845Z,69.91
2023-05-09T02:14:20.865Z,69.99
2023-05-09T02:15:24.134Z,70.36
2023-05-09T02:16:27.968Z,70.84
2023-05-09T02:17:30.973Z,71.67
2023-05-09T02:18:35.616Z,71.61
2023-05-09T02:19:38.352Z,70.90
2023-05-09T02:20:41.237Z,71.33
2023-05-09T02:21:44.299Z,71.35
2023-05-09T02:22:47.942Z,70.85
2023-05-09T02:23:50.824Z,71.59
2023-05-09T02:24:53.697Z,72.25
2023-05-09T02:25:56.863Z,72.05
2023-05-09T02:27:01.112Z,71.32
2023-05-09T02:28:04.271Z,70.94
2023-05-09T02:29:08.870Z,71.07
2023-05-09T02:30:15.678Z,71.31
2023-05-09T02:31:21.714Z,71.90
2023-05-09T02:32:29.120Z,72.06
2023-05-09T02:33:34.587Z,72.80
2023-05-09T02:34:39.860Z,72.70
2023-05-09T02:35:45.466Z,72.29
2023-05-09T02:36:48.534Z,71.59
2023-05-09T02:37:52.546Z,72.01
2023-05-09T02:38:55.946Z,71.83
2023-05-09T02:39:58.797Z,72.03
2023-05-09T02:41:01.835Z,73.01
2023-05-09T02:42:09.834Z,72.68
2023-05-09T02:43:13.061Z,72.72
2023-05-09T02:44:15.979Z,74.01
2023-05-09T02:45:18.719Z,73.76
2023-05-09T02:46:21.396Z,73.99
2023-05-09T02:47:24.144Z,73.71
2023-05-09T02:48:26.935Z,73.60
2023-05-09T02:49:32.440Z,74.18
2023-05-09T02:50:35.715Z,73.36
2023-05-09T02:51:38.407Z,74.26
2023-05-09T02:52:41.163Z,73.98
2023-05-09T02:53:44.008Z,74.41
2023-05-09T02:54:48.205Z,74.04
2023-05-09T02:55:51.054Z,73.74
2023-05-09T02:56:53.790Z,74.21
2023-05-09T02:58:09.367Z,74.98
2023-05-09T02:59:16.544Z,74.55
2023-05-09T03:00:20.014Z,74.00
2023-05-09T03:01:22.997Z,74.24
2023-05-09T03:02:26.230Z,74.60
2023-05-09T03:03:29.919Z,73.90
2023-05-09T03:04:32.682Z,73.63
2023-05-09T03:05:35.450Z,74.03
2023-05-09T03:06:38.259Z,73.89
2023-05-09T03:07:40.953Z,73.95
2023-05-09T03:08:43.762Z,73.22
2023-05-09T03:09:46.428Z,73.20
2023-05-09T03:10:49.150Z,73.07
2023-05-09T03:11:51.818Z,73.69
2023-05-09T03:12:54.759Z,73.22
2023-05-09T03:13:57.555Z,73.17
2023-05-09T03:15:01.425Z,73.12
2023-05-09T03:16:04.261Z,73.08
2023-05-09T03:17:07.059Z,72.54
2023-05-09T03:18:09.887Z,72.05
2023-05-09T03:19:12.666Z,72.45
2023-05-09T03:20:15.919Z,72.53
2023-05-09T03:21:18.650Z,71.79
2023-05-09T03:22:21.437Z,71.49
2023-05-09T03:23:24.288Z,71.92
2023-05-09T03:24:28.477Z,71.01
2023-05-09T03:25:31.503Z,72.21
2023-05-09T03:26:36.167Z,73.10
2023-05-09T03:27:38.812Z,72.29
2023-05-09T03:28:41.680Z,72.05
2023-05-09T03:29:44.338Z,70.85
2023-05-09T03:30:47.007Z,71.45
2023-05-09T03:31:49.737Z,71.45
2023-05-09T03:32:52.481Z,70.90
2023-05-09T03:33:55.148Z,70.86
2023-05-09T03:34:57.829Z,72.11
2023-05-09T03:36:00.425Z,71.77
2023-05-09T03:37:03.071Z,71.50
2023-05-09T03:38:05.968Z,71.15
2023-05-09T03:39:10.523Z,71.37
2023-05-09T03:40:13.309Z,71.42
2023-05-09T03:41:17.717Z,70.77
2023-05-09T03:42:20.423Z,70.75
2023-05-09T03:43:23.310Z,71.21
2023-05-09T03:44:26.343Z,70.34
2023-05-09T03:45:29.114Z,70.56
2023-05-09T03:46:31.831Z,70.22
2023-05-09T03:47:34.421Z,69.73
2023-05-09T03:48:37.075Z,69.45
2023-05-09T03:49:39.732Z,69.66
2023-05-09T03:50:42.548Z,69.85
2023-05-09T03:51:45.243Z,70.05
2023-05-09T03:52:47.940Z,69.61
2023-05-09T03:53:50.717Z,69.74
2023-05-09T03:54:53.397Z,69.79
2023-05-09T03:55:56.260Z,69.90
2023-05-09T03:56:58.949Z,70.14
2023-05-09T03:58:01.766Z,70.52
2023-05-09T03:59:04.550Z,70.62
2023-05-09T04:00:08.263Z,69.16
2023-05-09T04:01:11.354Z,69.43
2023-05-09T04:02:14.251Z,69.60
2023-05-09T04:03:16.985Z,69.55
2023-05-09T04:04:19.791Z,69.19
2023-05-09T04:05:22.528Z,68.10
2023-05-09T04:06:25.423Z,68.97
2023-05-09T04:07:29.072Z,69.27
2023-05-09T04:08:32.677Z,68.81
2023-05-09T04:09:35.500Z,69.04
2023-05-09T04:10:38.216Z,68.83
2023-05-09T04:11:40.899Z,67.87
2023-05-09T04:12:43.762Z,68.13
2023-05-09T04:13:46.580Z,68.21
2023-05-09T04:14:49.270Z,68.61
2023-05-09T04:15:51.937Z,68.23
2023-05-09T04:16:54.584Z,67.72
2023-05-09T04:17:57.375Z,67.96
2023-05-09T04:18:59.990Z,68.32
2023-05-09T04:20:03.835Z,67.19
2023-05-09T04:21:06.775Z,68.10
2023-05-09T04:22:09.465Z,68.25
2023-05-09T04:23:12.080Z,67.87
2023-05-09T04:24:14.811Z,67.92
2023-05-09T04:25:17.509Z,66.62
2023-05-09T04:26:22.844Z,67.38
2023-05-09T04:27:25.933Z,67.01
2023-05-09T04:28:28.646Z,67.12
2023-05-09T04:29:31.638Z,66.57
2023-05-09T04:30:34.331Z,67.12
2023-05-09T04:31:37.193Z,66.24
2023-05-09T04:32:40.093Z,65.77
2023-05-09T04:33:42.748Z,67.29
2023-05-09T04:34:45.733Z,67.42
2023-05-09T04:35:48.889Z,67.37
2023-05-09T04:36:52.298Z,67.18
2023-05-09T04:37:54.979Z,66.77
2023-05-09T04:38:57.832Z,66.73
2023-05-09T04:40:01.498Z,66.07
2023-05-09T04:41:04.082Z,66.30
2023-05-09T04:42:06.970Z,65.25
2023-05-09T04:43:09.720Z,65.07
2023-05-09T04:44:12.406Z,65.67
2023-05-09T04:45:16.051Z,65.91
2023-05-09T04:46:18.946Z,65.02
2023-05-09T04:47:21.611Z,64.84
2023-05-09T04:48:24.472Z,64.71
2023-05-09T04:49:27.094Z,64.33
2023-05-09T04:50:29.880Z,64.76
2023-05-09T04:51:32.475Z,65.12
2023-05-09T04:52:35.209Z,63.56
2023-05-09T04:53:37.852Z,63.31
2023-05-09T04:54:41.260Z,63.40
2023-05-09T04:55:44.050Z,63.91
2023-05-09T04:56:47.847Z,63.55
2023-05-09T04:57:51.463Z,62.73
2023-05-09T04:58:54.286Z,62.98
2023-05-09T04:59:56.916Z,63.29
2023-05-09T05:00:59.659Z,63.64
2023-05-09T05:02:03.032Z,62.58
2023-05-09T05:03:05.910Z,61.37
2023-05-09T05:04:08.619Z,61.19
2023-05-09T05:05:12.705Z,61.63
2023-05-09T05:06:15.629Z,62.16
2023-05-09T05:07:18.575Z,60.52
2023-05-09T05:08:21.391Z,60.75
2023-05-09T05:09:24.478Z,60.72
2023-05-09T05:10:27.300Z,61.06
2023-05-09T05:11:31.705Z,60.45
2023-05-09T05:12:34.432Z,61.63
2023-05-09T05:13:37.007Z,61.31
2023-05-09T05:14:39.654Z,60.57
2023-05-09T05:15:42.666Z,60.74
2023-05-09T05:16:45.523Z,61.29
2023-05-09T05:17:48.301Z,61.17
2023-05-09T05:18:51.181Z,60.85
2023-05-09T05:19:53.855Z,60.76
2023-05-09T05:20:56.859Z,61.53
2023-05-09T05:21:59.631Z,60.33
2023-05-09T05:23:02.437Z,59.42
2023-05-09T05:24:05.216Z,59.29
2023-05-09T05:25:08.575Z,59.17
2023-05-09T05:26:11.578Z,59.82
2023-05-09T05:27:14.461Z,59.29
2023-05-09T05:28:17.192Z,59.55
2023-05-09T05:29:20.863Z,58.75
2023-05-09T05:30:24.049Z,59.40
2023-05-09T05:31:26.938Z,58.38
2023-05-09T05:32:29.623Z,57.90
2023-05-09T05:33:32.467Z,57.36
2023-05-09T05:34:35.249Z,58.50
2023-05-09T05:35:37.842Z,58.43
2023-05-09T05:36:40.519Z,58.33
2023-05-09T05:37:44.393Z,58.06
2023-05-09T05:38:47.173Z,58.02
2023-05-09T05:39:51.698Z,58.04
2023-05-09T05:40:54.444Z,57.17
2023-05-09T05:41:57.092Z,56.58
2023-05-09T05:42:59.908Z,56.64
2023-05-09T05:44:02.502Z,56.88
2023-05-09T05:45:05.807Z,56.55
2023-05-09T05:46:08.513Z,56.37
2023-05-09T05:47:11.093Z,56.26
2023-05-09T05:48:14.045Z,57.41
2023-05-09T05:49:16.635Z,57.37
2023-05-09T05:50:19.378Z,56.78
2023-05-09T05:51:22.388Z,57.13
2023-05-09T05:52:25.032Z,56.52
2023-05-09T05:53:27.683Z,55.20
2023-05-09T05:54:30.335Z,55.22
2023-05-09T05:55:32.968Z,55.61
2023-05-09T05:56:35.625Z,56.20
2023-05-09T05:57:39.273Z,56.32
2023-05-09T05:58:41.975Z,55.44
2023-05-09T05:59:44.593Z,55.14
2023-05-09T06:00:47.292Z,55.16
2023-05-09T06:01:49.978Z,54.68
2023-05-09T06:02:52.811Z,54.10
2023-05-09T06:03:56.163Z,54.04
2023-05-09T06:04:58.969Z,53.47
2023-05-09T06:06:01.849Z,53.46
2023-05-09T06:07:04.718Z,52.83
2023-05-09T06:08:07.562Z,52.87
2023-05-09T06:09:10.260Z,53.16
2023-05-09T06:10:15.988Z,53.44
2023-05-09T06:11:19.135Z,54.34
2023-05-09T06:12:21.814Z,53.51
2023-05-09T06:13:24.514Z,54.01
2023-05-09T06:14:27.400Z,53.18
2023-05-09T06:15:30.147Z,53.17
2023-05-09T06:16:33.119Z,53.15
2023-05-09T06:17:35.756Z,53.52
2023-05-09T06:18:40.242Z,53.35
2023-05-09T06:19:42.848Z,53.59
2023-05-09T06:20:45.583Z,53.13
2023-05-09T06:21:48.196Z,52.68
2023-05-09T06:22:50.993Z,54.15
2023-05-09T06:24:59.021Z,53.30
2023-05-09T06:26:01.751Z,52.29
2023-05-09T06:27:04.653Z,52.99
2023-05-09T06:28:07.533Z,53.14
2023-05-09T06:29:10.913Z,53.95
2023-05-09T06:30:24.680Z,52.89
2023-05-09T06:31:29.904Z,52.67
2023-05-09T06:32:32.627Z,52.35
2023-05-09T06:33:35.430Z,52.61
2023-05-09T06:34:38.186Z,52.40
2023-05-09T06:35:41.350Z,52.29
2023-05-09T06:36:44.052Z,52.01
2023-05-09T06:37:48.820Z,51.08
2023-05-09T06:38:51.885Z,51.37
2023-05-09T06:39:54.930Z,51.80
2023-05-09T06:40:57.618Z,51.25
2023-05-09T06:42:00.275Z,50.54
2023-05-09T06:43:02.987Z,50.46
2023-05-09T06:44:05.803Z,50.92
2023-05-09T06:45:08.917Z,51.10
2023-05-09T06:46:11.798Z,50.64
2023-05-09T06:47:14.517Z,49.80
2023-05-09T06:48:17.177Z,49.94
2023-05-09T06:49:19.867Z,51.02
2023-05-09T06:50:22.496Z,50.00
2023-05-09T06:51:25.149Z,49.42
2023-05-09T06:52:27.805Z,49.66
2023-05-09T06:53:30.590Z,50.08
2023-05-09T06:54:33.186Z,49.73
2023-05-09T06:55:36.221Z,48.38
2023-05-09T06:56:39.005Z,49.67
2023-05-09T06:57:41.739Z,48.31
2023-05-09T06:58:44.478Z,48.05
2023-05-09T06:59:47.539Z,48.07
2023-05-09T07:00:50.918Z,47.73
2023-05-09T07:01:53.745Z,48.51
2023-05-09T07:02:56.587Z,48.43
2023-05-09T07:03:59.851Z,47.47
2023-05-09T07:05:02.820Z,47.31
2023-05-09T07:06:05.582Z,47.18
2023-05-09T07:07:08.140Z,47.62
2023-05-09T07:08:11.160Z,48.82
2023-05-09T07:09:17.362Z,47.78
2023-05-09T07:10:20.158Z,47.27
2023-05-09T07:11:23.052Z,47.01
2023-05-09T07:12:25.822Z,48.12
2023-05-09T07:13:28.530Z,48.21
2023-05-09T07:14:31.266Z,47.85
2023-05-09T07:15:41.207Z,46.54
2023-05-09T07:16:46.791Z,47.58
2023-05-09T07:17:49.639Z,45.41
2023-05-09T07:18:52.219Z,46.02
2023-05-09T07:19:55.020Z,45.38
2023-05-09T07:20:57.705Z,46.67
2023-05-09T07:22:00.597Z,48.29
2023-05-09T07:23:04.393Z,46.80
2023-05-09T07:24:07.360Z,45.59
2023-05-09T07:25:10.462Z,45.64
2023-05-09T07:26:13.147Z,46.48
2023-05-09T07:27:15.930Z,45.90
2023-05-09T07:28:19.303Z,45.12
2023-05-09T07:29:22.066Z,46.00
2023-05-09T07:30:25.446Z,44.11
2023-05-09T07:31:28.315Z,44.87
2023-05-09T07:32:31.131Z,43.92
2023-05-09T07:33:33.940Z,43.82
2023-05-09T07:34:36.868Z,45.11
2023-05-09T07:35:39.692Z,45.85
2023-05-09T07:36:42.464Z,44.00
2023-05-09T07:37:45.413Z,43.71
2023-05-09T07:38:50.666Z,43.62
2023-05-09T07:39:54.452Z,42.95
2023-05-09T07:40:57.137Z,44.27
2023-05-09T07:41:59.884Z,45.13
2023-05-09T07:43:02.504Z,43.10
2023-05-09T07:44:05.734Z,42.35
2023-05-09T07:45:08.642Z,41.75
2023-05-09T07:46:11.526Z,42.10
2023-05-09T07:47:14.148Z,41.55
2023-05-09T07:48:17.363Z,41.21
2023-05-09T07:49:19.999Z,41.23
2023-05-09T07:50:23.390Z,42.99
2023-05-09T07:51:26.643Z,43.47
2023-05-09T07:52:29.265Z,40.87
2023-05-09T07:53:31.993Z,40.31
2023-05-09T07:54:34.739Z,40.35
2023-05-09T07:55:37.691Z,40.27
2023-05-09T07:56:41.072Z,41.56
2023-05-09T07:57:43.738Z,41.94
2023-05-09T07:58:46.360Z,41.03
2023-05-09T07:59:49.036Z,41.73
2023-05-09T08:00:51.699Z,41.48
2023-05-09T08:01:54.413Z,41.38
2023-05-09T08:02:57.239Z,38.92
2023-05-09T08:04:00.239Z,40.15
2023-05-09T08:05:03.304Z,39.57
2023-05-09T08:06:06.200Z,39.23
2023-05-09T08:07:09.230Z,40.89
2023-05-09T08:08:11.885Z,40.01
2023-05-09T08:09:14.473Z,39.11
2023-05-09T08:10:17.072Z,42.23
2023-05-09T08:11:19.684Z,40.28
2023-05-09T08:12:22.262Z,40.69
2023-05-09T08:13:25.424Z,40.36
2023-05-09T08:14:28.225Z,37.99
2023-05-09T08:15:31.494Z,37.86
2023-05-09T08:16:34.422Z,37.10
2023-05-09T08:17:37.172Z,37.14
2023-05-09T08:18:39.961Z,37.22
2023-05-09T08:19:42.552Z,37.74
2023-05-09T08:20:45.160Z,39.20
2023-05-09T08:21:47.786Z,39.26
2023-05-09T08:22:50.426Z,39.60
2023-05-09T08:23:53.386Z,37.49
2023-05-09T08:24:56.059Z,39.71
2023-05-09T08:25:59.302Z,38.29
2023-05-09T08:27:02.229Z,37.46
2023-05-09T08:28:05.018Z,38.99
2023-05-09T08:29:07.667Z,38.39
2023-05-09T08:30:11.070Z,37.99
2023-05-09T08:31:13.898Z,37.87
2023-05-09T08:32:16.590Z,39.19
2023-05-09T08:33:19.246Z,37.79
2023-05-09T08:34:21.970Z,36.46
2023-05-09T08:35:25.002Z,38.66
2023-05-09T08:36:27.848Z,38.56
2023-05-09T08:37:30.734Z,37.69
2023-05-09T08:38:33.585Z,37.74
2023-05-09T08:39:36.267Z,39.65
2023-05-09T08:40:39.187Z,37.11
2023-05-09T08:41:43.119Z,38.46
2023-05-09T08:42:46.279Z,37.75
2023-05-09T08:43:49.627Z,37.47
2023-05-09T08:44:52.409Z,38.83
2023-05-09T08:45:59.082Z,38.06
2023-05-09T08:47:03.534Z,35.25
2023-05-09T08:48:07.195Z,35.92
2023-05-09T08:49:10.358Z,35.30
2023-05-09T08:50:15.712Z,37.17
2023-05-09T08:51:18.707Z,38.77
2023-05-09T08:52:21.946Z,38.82
2023-05-09T08:53:24.978Z,38.19
2023-05-09T08:54:28.952Z,35.96
2023-05-09T08:55:32.735Z,36.79
2023-05-09T08:56:36.234Z,33.52
2023-05-09T08:57:38.972Z,34.28
2023-05-09T08:58:42.258Z,34.20
2023-05-09T08:59:45.719Z,34.85
2023-05-09T09:00:49.720Z,35.40
2023-05-09T09:01:54.655Z,35.47
2023-05-09T09:03:03.468Z,36.98
2023-05-09T09:04:08.001Z,37.55
2023-05-09T09:05:19.909Z,36.83
2023-05-09T09:06:34.888Z,34.99
2023-05-09T09:07:40.072Z,35.48
2023-05-09T09:08:46.240Z,34.72
2023-05-09T09:09:49.804Z,34.30
2023-05-09T09:10:53.102Z,33.76
2023-05-09T09:11:55.810Z,34.62
2023-05-09T09:13:00.396Z,33.39
2023-05-09T09:14:12.168Z,34.61
2023-05-09T09:15:18.341Z,34.25
2023-05-09T09:16:22.994Z,33.57
2023-05-09T09:17:28.646Z,33.41
2023-05-09T09:18:34.521Z,33.03
2023-05-09T09:19:41.141Z,33.66
2023-05-09T09:20:58.082Z,33.14
2023-05-09T09:22:07.618Z,33.86
2023-05-09T09:23:10.867Z,35.44
2023-05-09T09:24:14.546Z,36.58
2023-05-09T09:25:17.489Z,35.92
2023-05-09T09:26:20.239Z,35.22
2023-05-09T09:27:22.918Z,34.71
2023-05-09T09:28:25.444Z,34.33
2023-05-09T09:29:29.077Z,33.79
2023-05-09T09:30:31.834Z,33.47
2023-05-09T09:31:34.988Z,34.33
2023-05-09T09:32:40.270Z,30.86
2023-05-09T09:33:44.285Z,32.66
2023-05-09T09:34:50.601Z,31.44
2023-05-09T09:35:55.860Z,31.87
2023-05-09T09:36:59.202Z,31.51
2023-05-09T09:38:01.884Z,32.45
2023-05-09T09:39:05.746Z,31.27
2023-05-09T09:40:12.595Z,31.14
2023-05-09T09:41:15.747Z,31.10
2023-05-09T09:42:18.445Z,30.33
2023-05-09T09:43:21.228Z,30.36
2023-05-09T09:44:23.987Z,29.64
2023-05-09T09:45:28.206Z,31.37
2023-05-09T09:46:54.784Z,30.30
2023-05-09T09:47:57.531Z,32.44
2023-05-09T09:49:00.158Z,32.21
2023-05-09T09:50:13.915Z,31.06
2023-05-09T09:51:18.565Z,31.67
2023-05-09T09:52:27.436Z,31.26
2023-05-09T09:53:31.094Z,31.81
2023-05-09T09:54:34.158Z,31.42
2023-05-09T09:55:36.832Z,31.22
2023-05-09T09:56:45.107Z,30.92
2023-05-09T09:57:48.537Z,30.95
2023-05-09T09:59:07.046Z,30.13
2023-05-09T10:00:10.241Z,31.67
2023-05-09T10:01:14.294Z,33.45
2023-05-09T10:02:23.555Z,34.51
2023-05-09T10:03:36.357Z,34.67
2023-05-09T10:04:41.669Z,31.36
2023-05-09T10:05:45.050Z,31.97
2023-05-09T10:06:58.261Z,32.74
2023-05-09T10:08:03.481Z,31.46
2023-05-09T10:09:06.886Z,30.40
2023-05-09T10:10:09.990Z,30.28
2023-05-09T10:11:13.012Z,31.20
2023-05-09T10:12:19.796Z,32.65
2023-05-09T10:13:22.690Z,32.72
2023-05-09T10:14:26.578Z,32.79
2023-05-09T10:15:41.541Z,34.29
2023-05-09T10:16:59.178Z,35.44
2023-05-09T10:18:04.653Z,34.25
2023-05-09T10:19:07.579Z,33.80
2023-05-09T10:20:13.221Z,34.16
2023-05-09T10:21:16.541Z,34.55
2023-05-09T10:22:21.090Z,33.14
2023-05-09T10:23:25.592Z,32.53
2023-05-09T10:24:36.850Z,32.00
2023-05-09T10:25:47.037Z,31.80
2023-05-09T10:26:52.505Z,30.47
2023-05-09T10:28:01.861Z,29.16
2023-05-09T10:29:10.896Z,31.63
2023-05-09T10:30:36.580Z,32.99
2023-05-09T10:31:42.560Z,29.76
2023-05-09T10:32:55.624Z,30.56
2023-05-09T10:34:05.752Z,30.37
2023-05-09T10:35:11.794Z,29.59
2023-05-09T10:36:18.155Z,28.99
2023-05-09T10:37:22.120Z,31.27
2023-05-09T10:38:25.603Z,29.87
2023-05-09T10:39:29.534Z,26.75
2023-05-09T10:40:34.203Z,28.23
2023-05-09T10:41:39.146Z,28.41
2023-05-09T10:42:45.417Z,27.31
2023-05-09T10:43:48.591Z,26.80
2023-05-09T10:44:53.690Z,27.14
2023-05-09T10:45:56.545Z,28.07
2023-05-09T10:47:00.436Z,27.53
2023-05-09T10:48:04.483Z,28.39
2023-05-09T10:49:08.143Z,29.53
2023-05-09T10:50:13.345Z,30.68
2023-05-09T10:51:17.316Z,30.21
2023-05-09T10:52:22.973Z,28.88
2023-05-09T10:53:41.595Z,28.65
2023-05-09T10:54:44.148Z,31.53
2023-05-09T10:56:03.127Z,30.42
2023-05-09T10:57:09.536Z,29.70
2023-05-09T10:58:29.046Z,32.00
2023-05-09T10:59:37.917Z,30.34
2023-05-09T11:00:44.141Z,29.50
2023-05-09T11:01:46.988Z,29.47
2023-05-09T11:03:08.437Z,29.11
2023-05-09T11:04:13.134Z,27.56
2023-05-09T11:05:23.177Z,27.44
2023-05-09T11:06:47.244Z,27.51
2023-05-09T11:08:22.119Z,28.96
2023-05-09T11:09:35.063Z,31.97
2023-05-09T11:10:43.782Z,31.94
2023-05-09T11:11:53.629Z,30.53
2023-05-09T11:13:01.095Z,31.04
2023-05-09T11:14:04.123Z,31.95
2023-05-09T11:15:08.375Z,29.91
2023-05-09T11:16:12.249Z,27.22
2023-05-09T11:17:24.799Z,27.54
2023-05-09T11:18:32.513Z,29.57
2023-05-09T11:19:45.610Z,32.26
2023-05-09T11:20:49.556Z,30.84
2023-05-09T11:22:20.838Z,30.81
2023-05-09T11:23:27.651Z,31.65
2023-05-09T11:24:32.850Z,31.84
2023-05-09T11:25:36.277Z,32.63
2023-05-09T11:26:40.298Z,30.48
2023-05-09T11:27:44.495Z,30.62
2023-05-09T11:28:53.512Z,30.09
2023-05-09T11:29:58.378Z,30.76
2023-05-09T11:31:15.161Z,30.20
2023-05-09T11:32:18.599Z,32.80
2023-05-09T11:33:27.375Z,30.65
2023-05-09T11:34:30.160Z,30.63
2023-05-09T11:35:37.000Z,31.54
2023-05-09T11:36:43.283Z,29.00
2023-05-09T11:38:02.542Z,30.20
2023-05-09T11:39:10.292Z,30.30
2023-05-09T11:40:15.329Z,31.83
2023-05-09T11:41:18.062Z,31.82
2023-05-09T11:42:23.365Z,29.78
2023-05-09T11:43:26.625Z,30.07
2023-05-09T11:44:32.054Z,28.06
2023-05-09T11:45:34.681Z,28.86
2023-05-09T11:46:37.400Z,28.86
2023-05-09T11:47:41.132Z,29.78
2023-05-09T11:48:43.846Z,31.92
2023-05-09T11:49:46.818Z,29.62
2023-05-09T11:50:49.782Z,29.38
2023-05-09T11:51:52.405Z,29.10
2023-05-09T11:52:55.212Z,29.10
2023-05-09T11:53:57.836Z,27.93
2023-05-09T11:55:00.488Z,28.55
2023-05-09T11:56:04.814Z,29.69
2023-05-09T11:57:08.708Z,30.97
2023-05-09T11:58:11.577Z,31.99
2023-05-09T11:59:16.173Z,31.02
2023-05-09T12:00:20.951Z,32.30
2023-05-09T12:01:23.711Z,31.32
2023-05-09T12:02:26.691Z,31.34
2023-05-09T12:03:29.972Z,31.29
2023-05-09T12:04:34.161Z,30.19
2023-05-09T12:05:39.654Z,31.53
2023-05-09T12:06:47.948Z,33.93
2023-05-09T12:07:51.168Z,32.65
2023-05-09T12:08:56.253Z,32.53
2023-05-09T12:10:02.819Z,32.31
2023-05-09T12:11:09.993Z,30.58
2023-05-09T12:12:13.180Z,32.34
2023-05-09T12:13:16.067Z,31.99
2023-05-09T12:14:34.981Z,30.93
2023-05-09T12:15:38.237Z,33.33
2023-05-09T12:16:46.219Z,32.80
2023-05-09T12:18:10.171Z,33.54
2023-05-09T12:19:13.028Z,32.43
2023-05-09T12:20:15.994Z,31.83
2023-05-09T12:21:20.594Z,32.58
2023-05-09T12:22:23.265Z,34.93
2023-05-09T12:23:25.993Z,32.78
2023-05-09T12:24:30.627Z,34.32
2023-05-09T12:25:33.472Z,34.07
2023-05-09T12:26:36.146Z,32.59
2023-05-09T12:27:40.523Z,31.82
2023-05-09T12:28:44.086Z,31.87
2023-05-09T12:29:48.760Z,31.39
2023-05-09T12:30:52.712Z,31.61
2023-05-09T12:31:55.804Z,30.15
2023-05-09T12:32:58.886Z,31.08
2023-05-09T12:34:01.949Z,32.72
2023-05-09T12:35:05.315Z,31.94
2023-05-09T12:36:13.820Z,31.09
2023-05-09T12:37:20.095Z,30.31
2023-05-09T12:38:23.503Z,30.23
2023-05-09T12:39:26.929Z,31.21
2023-05-09T12:40:29.567Z,31.17
2023-05-09T12:41:39.261Z,29.24
2023-05-09T12:42:46.927Z,28.73
2023-05-09T12:43:51.152Z,28.81
2023-05-09T12:44:53.809Z,30.61
2023-05-09T12:45:58.272Z,30.40
2023-05-09T12:47:04.768Z,29.46
2023-05-09T12:48:09.671Z,27.52
2023-05-09T12:49:22.473Z,27.03
2023-05-09T12:50:35.072Z,28.70
2023-05-09T12:51:38.049Z,30.63
2023-05-09T12:52:54.521Z,30.41
2023-05-09T12:54:05.526Z,30.69
2023-05-09T12:55:13.791Z,34.39
2023-05-09T12:56:23.045Z,34.22
2023-05-09T12:57:30.103Z,31.98
2023-05-09T12:58:34.419Z,31.11
2023-05-09T12:59:37.122Z,32.97
2023-05-09T13:00:44.687Z,30.67
2023-05-09T13:01:53.848Z,29.94
2023-05-09T13:02:57.253Z,30.28
2023-05-09T13:04:06.770Z,29.60
2023-05-09T13:05:11.259Z,29.78
2023-05-09T13:06:14.871Z,31.79
2023-05-09T13:07:17.531Z,30.70
2023-05-09T13:08:21.781Z,31.77
2023-05-09T13:09:25.957Z,32.17
2023-05-09T13:10:29.159Z,32.59
2023-05-09T13:11:32.311Z,31.89
2023-05-09T13:12:35.074Z,32.34
2023-05-09T13:13:38.588Z,31.30
2023-05-09T13:14:41.480Z,31.62
2023-05-09T13:15:44.872Z,31.52
2023-05-09T13:16:48.006Z,32.05
2023-05-09T13:17:52.009Z,33.73
2023-05-09T13:18:54.825Z,32.60
2023-05-09T13:19:57.587Z,33.68
2023-05-09T13:21:00.275Z,31.68
2023-05-09T13:22:02.942Z,30.96
2023-05-09T13:23:05.860Z,32.00
2023-05-09T13:24:08.730Z,32.04
2023-05-09T13:25:12.330Z,32.36
2023-05-09T13:26:15.121Z,32.12
2023-05-09T13:27:17.823Z,32.00
2023-05-09T13:28:20.607Z,33.84
2023-05-09T13:29:23.302Z,32.52
2023-05-09T13:30:26.150Z,33.24
2023-05-09T13:31:29.070Z,32.51
2023-05-09T13:32:31.835Z,32.85
2023-05-09T13:33:34.627Z,32.91
2023-05-09T13:34:37.460Z,32.99
2023-05-09T13:35:40.088Z,33.40
2023-05-09T13:36:42.969Z,33.92
2023-05-09T13:37:46.822Z,34.24
2023-05-09T13:38:50.042Z,35.52
2023-05-09T13:39:53.625Z,34.78
2023-05-09T13:40:56.830Z,34.20
2023-05-09T13:41:59.695Z,35.85
2023-05-09T13:43:02.495Z,35.93
2023-05-09T13:44:05.396Z,35.88
2023-05-09T13:45:08.846Z,35.50
2023-05-09T13:46:11.786Z,35.90
2023-05-09T13:47:14.821Z,37.07
2023-05-09T13:48:17.655Z,35.89
2023-05-09T13:49:20.482Z,33.82
2023-05-09T13:50:23.381Z,32.84
2023-05-09T13:51:26.191Z,33.17
2023-05-09T13:52:28.954Z,33.28